Terminal Aerodrome Forecast
Issued by NWS Lake Charles, LA

Home | Current Version | Previous Version | Text Only | Print | Product List | Glossary On
Versions: 1 2 3 4 5 6 7 8 9 10 11 12 13 14 15 16 17 18 19
000
FTUS44 KLCH 301132
TAFAEX
TAF
KAEX 301132Z 3012/3112 VRB03KT P6SM FEW025 BKN200
      TEMPO 3012/3014 5SM BR
     FM301900 VRB06KT P6SM VCSH SCT035
     FM310100 00000KT P6SM SCT200=

USA.gov is the U.S. government's official web portal to all federal, state and local government web resources and services.